Time;durP1;ratioP1;P1;durP2;ratioP2;P2;SDS_P1;SDS_P2;PMS_P1;PMS_P2;Temp;Humidity;BMP_temperature;BMP_pressure;BME280_temperature;BME280_humidity;BME280_pressure;Samples;Min_cycle;Max_cycle;Signal;HPM_P1;HPM_P2
2022/04/01 00:01:06;;;;;;;12.37;11.17;;;;;;;2.61;100.00;94923.59;4981723;28;20374;-57
2022/04/01 00:03:35;;;;;;;12.33;11.13;;;;;;;2.59;100.00;94915.16;5021219;28;20283;-53
2022/04/01 00:06:03;;;;;;;12.77;11.43;;;;;;;2.60;100.00;94916.75;5020460;28;20227;-57
2022/04/01 00:08:31;;;;;;;13.00;11.70;;;;;;;2.61;100.00;94915.75;5022787;28;20675;-54
2022/04/01 00:10:59;;;;;;;13.37;12.07;;;;;;;2.51;100.00;94907.44;5018041;28;20223;-57
2022/04/01 00:13:27;;;;;;;12.77;11.57;;;;;;;2.51;100.00;94913.50;5025468;28;20231;-56
2022/04/01 00:15:59;;;;;;;11.93;10.80;;;;;;;2.57;100.00;94909.28;5000046;28;20309;-58
2022/04/01 00:18:28;;;;;;;12.10;11.00;;;;;;;2.54;100.00;94912.28;5014026;28;20230;-58
2022/04/01 00:20:56;;;;;;;11.83;10.63;;;;;;;2.51;100.00;94908.28;5022795;28;20323;-57
2022/04/01 00:23:25;;;;;;;11.60;10.40;;;;;;;2.58;100.00;94909.13;5022895;28;20199;-57
2022/04/01 00:25:53;;;;;;;10.73;9.73;;;;;;;2.66;100.00;94917.81;5025095;28;20216;-58
2022/04/01 00:28:21;;;;;;;11.10;10.00;;;;;;;2.60;100.00;94906.31;5024905;28;20286;-51
2022/04/01 00:30:49;;;;;;;11.17;10.03;;;;;;;2.61;100.00;94905.31;5023137;28;20262;-57
2022/04/01 00:33:20;;;;;;;9.63;8.73;;;;;;;2.65;100.00;94908.34;4982829;28;20919;-55
2022/04/01 00:35:48;;;;;;;11.27;10.10;;;;;;;2.59;100.00;94907.31;5021520;28;20201;-57
2022/04/01 00:38:16;;;;;;;10.17;9.17;;;;;;;2.55;100.00;94909.50;5022034;28;20207;-56
2022/04/01 00:40:45;;;;;;;11.07;9.93;;;;;;;2.44;100.00;94910.81;5024438;28;20247;-55
2022/04/01 00:43:13;;;;;;;10.37;9.47;;;;;;;2.45;100.00;94907.22;5018944;28;20200;-56
2022/04/01 00:45:41;;;;;;;11.07;10.03;;;;;;;2.50;100.00;94904.03;5025241;28;20934;-57
2022/04/01 00:48:11;;;;;;;9.97;9.10;;;;;;;2.56;100.00;94913.72;4985405;28;20227;-58
2022/04/01 00:50:41;;;;;;;9.07;8.37;;;;;;;2.51;100.00;94910.06;5020987;28;20677;-56
2022/04/01 00:53:09;;;;;;;9.33;8.53;;;;;;;2.50;100.00;94905.84;5017198;28;20223;-56
2022/04/01 00:55:37;;;;;;;10.80;9.80;;;;;;;2.41;100.00;94892.91;5021785;28;21062;-56
2022/04/01 00:58:06;;;;;;;9.77;8.87;;;;;;;2.51;100.00;94903.03;5021229;28;20286;-55
2022/04/01 01:00:36;;;;;;;9.53;8.60;;;;;;;2.56;100.00;94900.66;5023542;28;20224;-53
2022/04/01 01:03:04;;;;;;;10.10;9.13;;;;;;;2.60;100.00;94894.06;4986979;28;20208;-59
2022/04/01 01:05:33;;;;;;;10.40;9.10;;;;;;;2.59;100.00;94889.81;5024124;28;20615;-55
2022/04/01 01:08:05;;;;;;;10.13;9.13;;;;;;;2.51;100.00;94897.81;5023385;28;20238;-56
2022/04/01 01:10:33;;;;;;;10.27;9.47;;;;;;;2.55;100.00;94901.66;5026375;28;20227;-54
2022/04/01 01:13:02;;;;;;;9.87;8.70;;;;;;;2.40;100.00;94882.63;5026674;28;20208;-58
2022/04/01 01:15:30;;;;;;;9.57;8.67;;;;;;;2.43;100.00;94898.75;5026491;28;20877;-55
2022/04/01 01:17:59;;;;;;;9.43;8.50;;;;;;;2.48;100.00;94890.34;5003759;28;20641;-57
2022/04/01 01:20:28;;;;;;;8.80;8.00;;;;;;;2.51;100.00;94895.19;5016708;28;20284;-53
2022/04/01 01:22:57;;;;;;;10.40;9.40;;;;;;;2.52;100.00;94894.19;5026744;28;20208;-55
2022/04/01 01:25:27;;;;;;;9.43;8.53;;;;;;;2.50;100.00;94888.34;5025613;28;20595;-57
2022/04/01 01:27:55;;;;;;;9.00;7.90;;;;;;;2.56;100.00;94898.03;5026840;28;20334;-57
2022/04/01 01:30:24;;;;;;;8.10;7.40;;;;;;;2.46;100.00;94890.53;5028406;28;20289;-58
2022/04/01 01:32:53;;;;;;;8.67;7.87;;;;;;;2.36;100.00;94894.47;5012403;28;20214;-58
2022/04/01 01:35:22;;;;;;;8.90;8.10;;;;;;;2.39;100.00;94897.50;5011234;28;20203;-52
2022/04/01 01:37:50;;;;;;;8.73;7.93;;;;;;;2.43;100.00;94890.09;5025369;28;20208;-56
2022/04/01 01:40:18;;;;;;;8.00;7.30;;;;;;;2.32;100.00;94888.81;5025326;28;20302;-55
2022/04/01 01:42:48;;;;;;;9.00;8.20;;;;;;;2.33;100.00;94889.63;5024156;28;20207;-57
2022/04/01 01:45:17;;;;;;;9.30;8.40;;;;;;;2.30;100.00;94888.19;5024061;28;20284;-54
2022/04/01 01:47:45;;;;;;;7.77;7.07;;;;;;;2.42;100.00;94891.09;5029450;28;20859;-55
2022/04/01 01:55:44;;;;;;;6.80;6.27;;;;;;;2.27;100.00;94876.31;5027911;28;20630;-56
2022/04/01 01:58:15;;;;;;;8.00;7.40;;;;;;;2.29;100.00;94878.75;5027300;28;20210;-58
2022/04/01 02:00:43;;;;;;;7.07;6.47;;;;;;;2.23;100.00;94879.47;5028227;28;20342;-57
2022/04/01 02:03:11;;;;;;;7.70;7.00;;;;;;;2.28;100.00;94875.31;5026316;28;20195;-52
2022/04/01 02:05:40;;;;;;;7.60;6.97;;;;;;;2.17;100.00;94875.84;4986560;28;20211;-56
2022/04/01 02:08:08;;;;;;;8.00;7.30;;;;;;;2.20;100.00;94878.06;4997286;28;20899;-57
2022/04/01 02:10:37;;;;;;;7.53;6.83;;;;;;;2.13;100.00;94879.81;5025033;28;20227;-55
2022/04/01 02:13:05;;;;;;;7.10;6.50;;;;;;;2.23;100.00;94880.31;5026985;28;20238;-58
2022/04/01 02:15:35;;;;;;;7.53;6.93;;;;;;;2.10;100.00;94875.75;5023953;28;20219;-58
2022/04/01 02:18:03;;;;;;;7.23;6.63;;;;;;;2.14;100.00;94877.00;5021143;28;20323;-56
2022/04/01 02:20:33;;;;;;;7.70;6.97;;;;;;;2.13;100.00;94882.44;5022917;28;20232;-54
2022/04/01 02:26:44;;;;;;;6.67;6.17;;;;;;;2.00;100.00;94880.50;5024593;28;20242;-54
2022/04/01 02:29:12;;;;;;;7.27;6.60;;;;;;;2.01;100.00;94880.31;5028528;28;20203;-57
2022/04/01 02:31:42;;;;;;;6.60;6.10;;;;;;;2.06;100.00;94884.16;5032556;28;20302;-56
2022/04/01 02:34:10;;;;;;;8.00;7.30;;;;;;;1.99;100.00;94882.28;5029221;28;20842;-61
2022/04/01 02:36:39;;;;;;;6.07;5.57;;;;;;;1.91;100.00;94879.00;4981669;28;20287;-55
2022/04/01 02:39:07;;;;;;;6.80;6.30;;;;;;;1.97;100.00;94891.31;5010235;28;20377;-58
2022/04/01 02:41:36;;;;;;;6.33;5.83;;;;;;;1.91;100.00;94885.03;5027376;28;20856;-57
2022/04/01 02:44:12;;;;;;;5.97;5.47;;;;;;;1.99;100.00;94881.50;5023119;28;20232;-58
2022/04/01 02:46:43;;;;;;;7.23;6.63;;;;;;;1.88;100.00;94886.19;5022119;28;20222;-52
2022/04/01 02:49:13;;;;;;;5.77;5.33;;;;;;;1.99;100.00;94895.34;5025669;28;20283;-58
2022/04/01 02:51:43;;;;;;;6.53;6.03;;;;;;;1.95;100.00;94890.69;4978754;28;21385;-58
2022/04/01 02:54:12;;;;;;;6.20;5.80;;;;;;;1.99;100.00;94895.34;5023839;28;20294;-57
2022/04/01 02:56:41;;;;;;;6.17;5.67;;;;;;;1.87;100.00;94889.81;5019665;28;20773;-53
2022/04/01 02:59:10;;;;;;;5.90;5.47;;;;;;;1.92;100.00;94889.25;5025655;28;20202;-58
2022/04/01 03:01:39;;;;;;;6.53;6.03;;;;;;;1.81;100.00;94887.94;5019935;28;20220;-56
2022/04/01 03:04:10;;;;;;;7.43;6.83;;;;;;;1.84;100.00;94889.38;5023261;28;20207;-58
2022/04/01 03:06:39;;;;;;;6.33;5.83;;;;;;;1.89;100.00;94892.25;4980574;28;21098;-58
2022/04/01 03:09:08;;;;;;;7.77;7.13;;;;;;;2.01;100.00;94900.41;5026197;28;20278;-58
2022/04/01 03:11:37;;;;;;;7.63;6.93;;;;;;;1.81;100.00;94895.78;5022477;28;20211;-54
2022/04/01 03:14:06;;;;;;;6.53;6.03;;;;;;;1.76;100.00;94900.75;4994438;28;20203;-55
2022/04/01 03:16:35;;;;;;;6.97;6.47;;;;;;;1.78;100.00;94896.16;5023449;28;20695;-58
2022/04/01 03:19:03;;;;;;;6.40;5.80;;;;;;;1.80;100.00;94886.31;5019442;28;20333;-58
2022/04/01 03:21:34;;;;;;;6.93;6.33;;;;;;;1.72;100.00;94887.28;5027620;28;20323;-56
2022/04/01 03:24:02;;;;;;;7.07;6.57;;;;;;;1.69;100.00;94887.63;4984636;28;20211;-58
2022/04/01 03:26:30;;;;;;;6.10;5.67;;;;;;;1.67;100.00;94887.00;5024259;28;20200;-57
2022/04/01 03:29:00;;;;;;;6.50;6.00;;;;;;;1.77;100.00;94889.31;5019007;28;20291;-58
2022/04/01 03:31:29;;;;;;;7.27;6.70;;;;;;;1.66;100.00;94887.19;5024899;28;21006;-56
2022/04/01 03:33:57;;;;;;;6.97;6.43;;;;;;;1.61;100.00;94892.16;5026474;28;20629;-57
2022/04/01 03:36:25;;;;;;;6.87;6.27;;;;;;;1.63;100.00;94890.97;5023577;28;20293;-54
2022/04/01 03:38:55;;;;;;;7.10;6.43;;;;;;;1.69;100.00;94892.03;4981954;28;20222;-58
2022/04/01 03:41:24;;;;;;;6.87;6.27;;;;;;;1.48;100.00;94882.38;5022158;28;20313;-58
2022/04/01 03:43:52;;;;;;;7.47;6.83;;;;;;;1.65;100.00;94888.19;5024626;28;20571;-57
2022/04/01 03:46:21;;;;;;;7.57;6.87;;;;;;;1.51;100.00;94877.59;4994315;28;21722;-55
2022/04/01 03:48:55;;;;;;;6.30;5.80;;;;;;;1.58;100.00;94893.31;4994864;28;20231;-56
2022/04/01 03:51:25;;;;;;;7.93;7.23;;;;;;;1.52;100.00;94892.28;5028246;28;20254;-57
2022/04/01 03:53:57;;;;;;;6.83;6.23;;;;;;;1.56;100.00;94887.50;4970133;28;20299;-56
2022/04/01 03:56:31;;;;;;;7.43;6.83;;;;;;;1.46;100.00;94894.81;5025664;28;20222;-57
2022/04/01 03:59:02;;;;;;;6.93;6.23;;;;;;;1.42;100.00;94889.97;5001087;28;21144;-50
2022/04/01 04:01:30;;;;;;;6.87;6.27;;;;;;;1.50;100.00;94893.44;5022390;28;20310;-55
2022/04/01 04:04:00;;;;;;;7.60;7.00;;;;;;;1.54;100.00;94889.47;5023196;28;20265;-56
2022/04/01 04:06:29;;;;;;;7.40;6.80;;;;;;;1.34;100.00;94879.63;5024744;28;20203;-57
2022/04/01 04:09:00;;;;;;;8.10;7.30;;;;;;;1.47;100.00;94904.25;5003979;28;20312;-56
2022/04/01 04:11:31;;;;;;;8.50;7.70;;;;;;;1.46;100.00;94895.59;4987706;28;20890;-54
2022/04/01 04:14:01;;;;;;;6.87;6.30;;;;;;;1.52;100.00;94899.28;5022235;28;21083;-55
2022/04/01 04:16:30;;;;;;;7.83;7.13;;;;;;;1.41;100.00;94896.16;5020322;28;20298;-56
2022/04/01 04:19:04;;;;;;;8.30;7.60;;;;;;;1.48;100.00;94898.84;5019590;28;21055;-53
2022/04/01 04:21:36;;;;;;;8.07;7.37;;;;;;;1.38;100.00;94900.94;5017250;28;20313;-54
2022/04/01 04:24:07;;;;;;;8.10;7.40;;;;;;;1.35;100.00;94894.28;5006384;28;20799;-56
2022/04/01 04:26:39;;;;;;;8.20;7.47;;;;;;;1.36;100.00;94901.13;4988569;28;20209;-55
2022/04/01 04:29:11;;;;;;;8.47;7.70;;;;;;;1.32;100.00;94905.06;5025853;28;20959;-54
2022/04/01 04:31:44;;;;;;;8.33;7.63;;;;;;;1.29;100.00;94900.22;5022545;28;20232;-56
2022/04/01 04:34:13;;;;;;;7.43;6.83;;;;;;;1.30;100.00;94899.22;5021791;28;20196;-50
2022/04/01 04:36:43;;;;;;;7.47;6.80;;;;;;;1.25;100.00;94904.19;5018813;28;20200;-54
2022/04/01 04:39:17;;;;;;;8.67;7.87;;;;;;;1.29;100.00;94911.47;4994826;28;21007;-57
2022/04/01 04:41:46;;;;;;;8.23;7.53;;;;;;;1.26;100.00;94916.25;4976646;28;20231;-56
2022/04/01 04:44:15;;;;;;;8.80;8.00;;;;;;;1.27;100.00;94915.25;5023045;28;20253;-55
2022/04/01 04:46:43;;;;;;;7.93;7.33;;;;;;;1.21;100.00;94919.41;5020645;28;21018;-58
2022/04/01 04:49:13;;;;;;;8.70;7.87;;;;;;;1.21;100.00;94921.19;5023506;28;20274;-56
2022/04/01 04:51:48;;;;;;;7.50;6.80;;;;;;;1.10;100.00;94920.66;5024659;28;20219;-56
2022/04/01 04:54:19;;;;;;;7.73;7.07;;;;;;;1.12;100.00;94921.28;5017670;28;20274;-56
2022/04/01 04:56:47;;;;;;;7.80;7.10;;;;;;;1.07;100.00;94912.38;4981136;28;20968;-54
2022/04/01 04:59:18;;;;;;;7.33;6.73;;;;;;;1.08;100.00;94920.03;5023863;28;20283;-56
2022/04/01 05:01:54;;;;;;;8.03;7.33;;;;;;;1.00;100.00;94923.53;5029071;28;20310;-57
2022/04/01 05:04:33;;;;;;;8.47;7.67;;;;;;;0.99;100.00;94932.34;5024145;28;20286;-56
2022/04/01 05:07:11;;;;;;;8.27;7.50;;;;;;;0.91;100.00;94924.63;5021370;28;21456;-56
2022/04/01 05:09:47;;;;;;;7.60;6.90;;;;;;;1.00;100.00;94933.19;5003473;28;21136;-55
2022/04/01 05:12:23;;;;;;;9.13;8.00;;;;;;;1.01;100.00;94937.41;5009027;28;20286;-55
2022/04/01 05:15:04;;;;;;;7.70;7.00;;;;;;;1.04;100.00;94938.81;5025353;28;20232;-54
2022/04/01 05:17:36;;;;;;;8.93;8.13;;;;;;;0.99;100.00;94937.56;5009254;28;20208;-54
2022/04/01 05:20:11;;;;;;;8.43;7.73;;;;;;;1.05;100.00;94940.44;5025870;28;20235;-56
2022/04/01 05:22:56;;;;;;;8.27;7.57;;;;;;;1.05;100.00;94945.66;5003102;28;20613;-51
2022/04/01 05:25:29;;;;;;;7.97;7.27;;;;;;;1.04;100.00;94944.88;5006029;28;21151;-57
2022/04/01 05:28:02;;;;;;;8.23;7.47;;;;;;;0.94;100.00;94957.34;4982678;28;20357;-56
2022/04/01 05:30:31;;;;;;;7.13;6.60;;;;;;;1.07;100.00;94952.31;5019680;28;20226;-57
2022/04/01 05:33:06;;;;;;;8.23;7.43;;;;;;;1.00;100.00;94947.00;5019897;28;20214;-58
2022/04/01 05:35:37;;;;;;;8.30;7.57;;;;;;;1.14;100.00;94949.81;5016904;28;20210;-57
2022/04/01 05:38:07;;;;;;;7.90;7.20;;;;;;;1.09;100.00;94954.75;5008951;28;20642;-58
2022/04/01 05:40:38;;;;;;;7.60;6.97;;;;;;;1.09;100.00;94954.75;5021955;28;20215;-58
2022/04/01 05:43:07;;;;;;;8.47;7.67;;;;;;;0.99;100.00;94960.25;5001324;28;20353;-57
2022/04/01 05:45:35;;;;;;;7.53;6.83;;;;;;;1.02;100.00;94957.28;5007866;28;20203;-57
2022/04/01 05:48:11;;;;;;;8.33;7.60;;;;;;;0.97;100.00;94970.03;5021943;28;20310;-57
2022/04/01 05:50:40;;;;;;;8.30;7.60;;;;;;;0.93;100.00;94961.75;5027777;28;20230;-57
2022/04/01 05:53:09;;;;;;;8.27;7.47;;;;;;;0.89;100.00;94970.94;5025406;28;20287;-55
2022/04/01 05:55:40;;;;;;;8.43;7.63;;;;;;;0.87;100.00;94970.28;5019843;28;20218;-54
2022/04/01 05:58:08;;;;;;;7.37;6.70;;;;;;;0.94;100.00;94972.97;5002804;28;20312;-57
2022/04/01 06:00:43;;;;;;;7.47;6.77;;;;;;;0.98;100.00;94987.31;5008328;28;20238;-58
2022/04/01 06:03:32;;;;;;;7.57;6.87;;;;;;;1.04;100.00;94981.38;5025858;28;20563;-55
2022/04/01 06:06:04;;;;;;;8.40;7.60;;;;;;;0.97;100.00;94985.69;5027626;28;20286;-55
2022/04/01 06:08:39;;;;;;;7.67;6.97;;;;;;;1.03;100.00;94984.97;5011968;28;21182;-56
2022/04/01 06:11:13;;;;;;;8.10;7.40;;;;;;;1.05;100.00;94980.38;5025884;28;20236;-55
2022/04/01 06:13:48;;;;;;;7.73;7.13;;;;;;;1.08;100.00;94989.63;4975719;28;20303;-59
2022/04/01 06:16:20;;;;;;;9.43;8.57;;;;;;;0.97;100.00;94983.88;5024231;28;20567;-57
2022/04/01 06:18:53;;;;;;;8.37;7.67;;;;;;;1.05;100.00;94995.22;5023522;28;20227;-55
2022/04/01 06:21:24;;;;;;;7.80;7.17;;;;;;;1.07;100.00;94994.06;5028881;28;20963;-54
2022/04/01 06:24:12;;;;;;;7.83;7.23;;;;;;;1.06;100.00;94991.63;5029731;28;20322;-58
2022/04/01 06:26:48;;;;;;;8.10;7.40;;;;;;;1.10;100.00;94995.47;5020903;28;20211;-57
2022/04/01 06:29:24;;;;;;;8.20;7.50;;;;;;;1.02;100.00;95009.44;4983796;28;20316;-55
2022/04/01 06:31:55;;;;;;;9.17;7.60;;;;;;;0.95;100.00;95003.31;5026896;28;20667;-56
2022/04/01 06:34:28;;;;;;;7.80;7.10;;;;;;;1.04;100.00;95007.47;5024727;28;20286;-56
2022/04/01 06:37:00;;;;;;;8.30;7.60;;;;;;;1.07;100.00;95007.09;5027896;28;20293;-53
2022/04/01 06:39:39;;;;;;;7.73;7.13;;;;;;;1.18;100.00;94995.44;5012457;28;21844;-55
2022/04/01 06:42:10;;;;;;;7.00;6.40;;;;;;;1.17;100.00;95000.81;5027478;28;21032;-55
2022/04/01 06:44:39;;;;;;;7.13;6.47;;;;;;;1.33;100.00;95003.25;5009945;28;20206;-57
2022/04/01 06:47:08;;;;;;;7.00;6.40;;;;;;;1.26;100.00;94994.50;4986161;28;20628;-56
2022/04/01 06:49:36;;;;;;;7.40;6.77;;;;;;;1.33;100.00;95005.88;5025930;28;20230;-56
2022/04/01 06:52:05;;;;;;;6.60;6.10;;;;;;;1.41;100.00;95007.56;5030136;28;20228;-57
2022/04/01 06:54:33;;;;;;;7.23;6.63;;;;;;;1.39;100.00;95006.94;5012962;28;21148;-58
2022/04/01 06:57:01;;;;;;;7.60;6.90;;;;;;;1.36;100.00;95010.72;5030152;28;20242;-57
2022/04/01 06:59:31;;;;;;;7.10;6.40;;;;;;;1.41;100.00;95020.59;5006650;28;21147;-59
2022/04/01 07:01:59;;;;;;;7.43;6.83;;;;;;;1.33;100.00;95018.91;4987696;28;20322;-56
2022/04/01 07:04:27;;;;;;;6.53;6.03;;;;;;;1.26;100.00;95012.78;5017953;28;20208;-58
2022/04/01 07:06:56;;;;;;;6.97;6.47;;;;;;;1.34;100.00;95028.34;5025993;28;20244;-58
2022/04/01 07:09:24;;;;;;;6.67;6.03;;;;;;;1.47;100.00;95029.53;5018869;28;20242;-60
2022/04/01 07:11:53;;;;;;;6.93;6.43;;;;;;;1.26;100.00;95031.03;5006862;28;20228;-52
2022/04/01 07:14:27;;;;;;;7.10;6.50;;;;;;;1.23;100.00;95024.38;5019951;28;20196;-57
2022/04/01 07:16:56;;;;;;;6.53;6.03;;;;;;;1.33;100.00;95034.56;4970990;28;20231;-60
2022/04/01 07:19:25;;;;;;;6.40;5.90;;;;;;;1.39;100.00;95044.28;5019519;28;20251;-58
2022/04/01 07:21:53;;;;;;;6.40;5.90;;;;;;;1.29;100.00;95035.88;5017037;28;20936;-58
2022/04/01 07:24:21;;;;;;;6.03;5.63;;;;;;;1.38;100.00;95034.84;5025954;28;20208;-58
2022/04/01 07:26:51;;;;;;;6.40;5.83;;;;;;;1.47;100.00;95029.53;5006092;28;20214;-56
2022/04/01 07:29:19;;;;;;;5.70;5.20;;;;;;;1.48;100.00;95041.59;5022868;28;20223;-55
2022/04/01 07:34:42;;;;;;;6.97;6.37;;;;;;;1.34;100.00;95036.19;5021236;28;20215;-57
2022/04/01 07:37:11;;;;;;;6.83;6.30;;;;;;;1.22;100.00;95041.03;5025797;28;20756;-56
2022/04/01 07:40:00;;;;;;;6.83;6.33;;;;;;;1.39;100.00;95040.84;5024880;28;21031;-55
2022/04/01 07:42:29;;;;;;;7.90;7.20;;;;;;;1.44;100.00;95043.72;5013388;28;20330;-59
2022/04/01 07:44:57;;;;;;;6.93;6.33;;;;;;;1.43;100.00;95039.50;5025563;28;20285;-59
2022/04/01 07:47:26;;;;;;;6.83;6.30;;;;;;;1.47;100.00;95042.56;4971831;28;20212;-53
2022/04/01 07:49:55;;;;;;;7.07;6.57;;;;;;;1.60;100.00;95045.34;5021542;28;21015;-59
2022/04/01 07:52:24;;;;;;;6.17;5.70;;;;;;;1.69;100.00;95046.88;5023645;28;20208;-57
2022/04/01 07:54:52;;;;;;;7.07;6.50;;;;;;;1.69;100.00;95041.66;5020260;28;20288;-57
2022/04/01 07:57:21;;;;;;;6.20;5.70;;;;;;;1.91;100.00;95049.56;5009845;28;20727;-59
2022/04/01 07:59:49;;;;;;;6.87;6.37;;;;;;;2.01;100.00;95050.09;5021406;28;20188;-55
2022/04/01 08:02:18;;;;;;;6.63;6.13;;;;;;;2.17;100.00;95036.00;5007219;28;20295;-58
2022/04/01 08:04:46;;;;;;;6.10;5.70;;;;;;;2.39;100.00;95051.72;4981269;28;20223;-57
2022/04/01 08:07:17;;;;;;;6.97;6.47;;;;;;;2.49;100.00;95042.75;5024453;28;20203;-57
2022/04/01 08:09:45;;;;;;;7.07;6.47;;;;;;;2.51;100.00;95046.81;5021544;28;20319;-58
2022/04/01 08:12:15;;;;;;;6.93;6.30;;;;;;;2.69;100.00;95045.56;5024074;28;20200;-58
2022/04/01 08:14:44;;;;;;;6.90;6.27;;;;;;;2.79;100.00;95043.44;5003967;28;20954;-54
2022/04/01 08:17:14;;;;;;;6.70;6.20;;;;;;;3.00;100.00;95052.28;5006739;28;20199;-55
2022/04/01 08:19:44;;;;;;;6.30;5.80;;;;;;;2.95;100.00;95054.66;4978854;28;20238;-58
2022/04/01 08:22:12;;;;;;;6.13;5.63;;;;;;;3.19;100.00;95051.59;5024058;28;20208;-56
2022/04/01 08:24:42;;;;;;;5.77;5.37;;;;;;;3.19;100.00;95050.81;5020965;28;20206;-56
2022/04/01 08:27:11;;;;;;;6.87;6.37;;;;;;;3.24;100.00;95050.25;5026499;28;20282;-54
2022/04/01 08:29:39;;;;;;;6.63;6.07;;;;;;;3.41;100.00;95062.03;5007024;28;20219;-57
2022/04/01 08:32:08;;;;;;;5.60;5.20;;;;;;;3.37;100.00;95058.19;5021186;28;20377;-56
2022/04/01 08:34:37;;;;;;;6.30;5.80;;;;;;;3.45;100.00;95068.50;4967064;28;20772;-57
2022/04/01 08:37:07;;;;;;;6.10;5.70;;;;;;;3.58;100.00;95074.81;5020939;28;20223;-58
2022/04/01 08:39:36;;;;;;;6.37;5.90;;;;;;;3.74;100.00;95068.47;5017442;28;20222;-55
2022/04/01 08:42:06;;;;;;;7.57;6.83;;;;;;;3.55;100.00;95081.25;5023596;28;20334;-57
2022/04/01 08:44:37;;;;;;;6.90;6.30;;;;;;;3.64;100.00;95081.09;5006353;28;20731;-57
2022/04/01 08:47:05;;;;;;;5.90;5.50;;;;;;;3.54;100.00;95090.13;5022666;28;20200;-60
2022/04/01 08:49:34;;;;;;;6.20;5.63;;;;;;;3.41;100.00;95093.44;4999475;28;20216;-58
2022/04/01 08:52:06;;;;;;;6.43;5.93;;;;;;;3.49;100.00;95092.50;5004447;28;20195;-56
2022/04/01 08:54:35;;;;;;;6.50;6.00;;;;;;;3.49;100.00;95084.66;5017370;28;20299;-58
2022/04/01 08:57:05;;;;;;;7.27;6.67;;;;;;;3.51;100.00;95092.28;5021617;28;20974;-57
2022/04/01 08:59:33;;;;;;;6.10;5.57;;;;;;;3.55;100.00;95096.16;5009056;28;20195;-55
2022/04/01 09:02:05;;;;;;;6.23;5.80;;;;;;;3.58;100.00;95093.97;5020337;28;20286;-59
2022/04/01 09:04:34;;;;;;;6.97;6.47;;;;;;;3.48;100.00;95091.69;5000924;28;20290;-58
2022/04/01 09:07:13;;;;;;;6.70;6.20;;;;;;;3.45;100.00;95096.50;5001713;28;20213;-57
2022/04/01 09:09:41;;;;;;;6.03;5.47;;;;;;;3.47;100.00;95095.31;5021074;28;21213;-57
2022/04/01 09:12:13;;;;;;;7.33;6.73;;;;;;;3.42;100.00;95097.69;5022135;28;20800;-54
2022/04/01 09:14:42;;;;;;;6.57;5.97;;;;;;;3.44;100.00;95103.53;5010478;28;20286;-58
2022/04/01 09:17:12;;;;;;;6.00;5.60;;;;;;;3.44;100.00;95105.38;5023833;28;20774;-57
2022/04/01 09:19:48;;;;;;;5.87;5.47;;;;;;;3.41;100.00;95090.00;5003619;28;20234;-56
2022/04/01 09:22:18;;;;;;;5.87;5.47;;;;;;;3.60;100.00;95101.66;4986709;28;20208;-56
2022/04/01 09:24:58;;;;;;;6.50;6.00;;;;;;;3.59;100.00;95106.06;5019543;28;20213;-58
2022/04/01 09:27:42;;;;;;;6.37;5.87;;;;;;;3.60;100.00;95099.81;5029410;28;20299;-57
2022/04/01 09:30:13;;;;;;;5.47;5.10;;;;;;;3.58;100.00;95101.81;5009958;28;20227;-55
2022/04/01 09:32:43;;;;;;;5.97;5.63;;;;;;;3.58;100.00;95099.22;5027844;28;20564;-56
2022/04/01 09:35:13;;;;;;;6.63;6.03;;;;;;;3.63;100.00;95101.25;5011666;28;20208;-53
2022/04/01 09:37:43;;;;;;;8.13;7.37;;;;;;;3.71;100.00;95100.28;4989918;28;20359;-58
2022/04/01 09:40:13;;;;;;;8.13;7.47;;;;;;;3.64;100.00;95102.88;5025338;28;20835;-59
2022/04/01 09:42:48;;;;;;;6.87;6.37;;;;;;;3.56;100.00;95095.16;5022307;28;20201;-56
2022/04/01 09:45:18;;;;;;;6.30;5.90;;;;;;;3.64;100.00;95113.34;5010626;28;20913;-55
2022/04/01 09:47:58;;;;;;;7.00;6.37;;;;;;;3.64;100.00;95110.75;5024599;28;20228;-55
2022/04/01 09:50:28;;;;;;;6.70;6.20;;;;;;;3.58;100.00;95106.25;5029888;28;20313;-57
2022/04/01 09:53:07;;;;;;;7.10;6.60;;;;;;;3.57;100.00;95115.09;4991118;28;20218;-60
2022/04/01 09:55:37;;;;;;;7.50;6.87;;;;;;;3.65;100.00;95111.53;5025110;28;20307;-55
2022/04/01 09:58:07;;;;;;;7.73;6.93;;;;;;;3.56;100.00;95118.72;5023002;28;20297;-58
2022/04/01 10:00:39;;;;;;;7.33;6.73;;;;;;;3.62;100.00;95125.84;5022469;28;20212;-58
2022/04/01 10:03:08;;;;;;;7.63;7.07;;;;;;;3.50;100.00;95135.19;5017961;28;20204;-55
2022/04/01 10:05:37;;;;;;;7.27;6.67;;;;;;;3.47;100.00;95131.16;5026615;28;20196;-57
2022/04/01 10:08:08;;;;;;;8.93;8.23;;;;;;;3.67;100.00;95125.25;4986061;28;20294;-57
2022/04/01 10:10:38;;;;;;;8.27;7.57;;;;;;;3.66;100.00;95126.25;5022379;28;20224;-56
2022/04/01 10:13:11;;;;;;;7.43;6.80;;;;;;;3.69;100.00;95124.06;5027752;28;20212;-56
2022/04/01 10:15:42;;;;;;;8.80;8.10;;;;;;;3.44;100.00;95124.47;5016228;28;20200;-59
2022/04/01 10:18:11;;;;;;;7.50;6.83;;;;;;;3.45;100.00;95130.53;5026071;28;20219;-58
2022/04/01 10:20:40;;;;;;;7.20;6.60;;;;;;;3.38;100.00;95142.75;5026547;28;20322;-57
2022/04/01 10:23:11;;;;;;;8.17;7.57;;;;;;;3.30;100.00;95131.41;4990744;28;20208;-58
2022/04/01 10:25:47;;;;;;;6.77;6.20;;;;;;;3.21;100.00;95139.59;5021192;28;20216;-55
2022/04/01 10:28:18;;;;;;;7.07;6.47;;;;;;;3.36;100.00;95145.56;5024760;28;20204;-58
2022/04/01 10:30:54;;;;;;;7.03;6.53;;;;;;;3.20;100.00;95138.78;5026399;28;20267;-54
2022/04/01 10:33:25;;;;;;;6.43;6.03;;;;;;;3.20;100.00;95146.63;5012210;28;20894;-57
2022/04/01 10:35:55;;;;;;;7.30;6.73;;;;;;;3.43;100.00;95135.16;5019924;28;21003;-59
2022/04/01 10:38:27;;;;;;;6.13;5.53;;;;;;;3.45;100.00;95141.03;4988162;28;20887;-58
2022/04/01 10:41:07;;;;;;;5.60;5.20;;;;;;;3.52;100.00;95148.91;5023678;28;20335;-56
2022/04/01 10:43:40;;;;;;;7.17;6.63;;;;;;;3.65;100.00;95137.72;5023720;28;20204;-55
2022/04/01 10:46:10;;;;;;;6.80;6.30;;;;;;;3.89;100.00;95145.16;5028067;28;20204;-52
2022/04/01 10:51:39;;;;;;;6.27;5.77;;;;;;;3.93;100.00;95137.69;5016260;28;20306;-57
2022/04/01 10:54:45;;;;;;;6.53;6.03;;;;;;;3.98;100.00;95134.50;4991184;28;20223;-54
2022/04/01 10:57:26;;;;;;;5.80;5.40;;;;;;;4.07;100.00;95132.56;5020951;28;20238;-56
2022/04/01 11:00:00;;;;;;;6.60;6.10;;;;;;;4.29;100.00;95133.25;5026758;28;20284;-57
2022/04/01 11:02:28;;;;;;;6.83;6.33;;;;;;;4.55;100.00;95134.38;5002293;28;20211;-54
2022/04/01 11:05:00;;;;;;;7.23;6.53;;;;;;;4.39;100.00;95131.06;5023838;28;20299;-57
2022/04/01 11:07:33;;;;;;;6.70;6.13;;;;;;;4.28;100.00;95134.25;5024225;28;20265;-55
2022/04/01 11:10:04;;;;;;;6.40;5.90;;;;;;;4.62;100.00;95132.59;4991782;28;20227;-52
2022/04/01 11:12:38;;;;;;;7.33;6.80;;;;;;;4.72;100.00;95143.50;5022719;28;20268;-56
2022/04/01 11:15:17;;;;;;;6.37;5.87;;;;;;;4.57;100.00;95146.28;5023359;28;20900;-56
2022/04/01 11:18:10;;;;;;;6.57;6.07;;;;;;;4.40;100.00;95148.44;5008962;28;21071;-56
2022/04/01 11:20:40;;;;;;;6.60;6.10;;;;;;;4.32;100.00;95148.59;5009569;28;20220;-56
2022/04/01 11:23:13;;;;;;;6.07;5.60;;;;;;;4.34;100.00;95146.59;5022547;28;20225;-57
2022/04/01 11:25:54;;;;;;;6.50;6.00;;;;;;;4.20;100.00;95156.19;4982304;28;20307;-55
2022/04/01 11:28:29;;;;;;;6.30;5.90;;;;;;;4.11;100.00;95133.78;5021489;28;20239;-55
2022/04/01 11:31:16;;;;;;;6.47;5.97;;;;;;;4.26;100.00;95142.31;5013731;28;20223;-57
2022/04/01 11:34:00;;;;;;;8.40;7.70;;;;;;;4.19;100.00;95151.97;5017153;28;20937;-58
2022/04/01 11:36:29;;;;;;;8.97;8.07;;;;;;;4.08;100.00;95147.28;5005878;28;20230;-56
2022/04/01 11:38:59;;;;;;;7.72;7.20;;;;;;;4.03;100.00;95146.03;5011188;28;20473;-57
2022/04/01 11:41:45;;;;;;;7.67;7.07;;;;;;;4.11;100.00;95141.63;4981717;28;20219;-55
2022/04/01 11:44:15;;;;;;;7.60;7.00;;;;;;;4.16;100.00;95150.53;4998488;28;20207;-57
2022/04/01 11:46:52;;;;;;;8.90;7.93;;;;;;;4.10;100.00;95132.94;5017059;28;20214;-55
2022/04/01 11:49:20;;;;;;;6.93;6.43;;;;;;;3.87;100.00;95139.28;5025884;28;20207;-53
2022/04/01 11:51:48;;;;;;;7.82;7.22;;;;;;;3.72;100.00;95146.44;4981295;28;21421;-57
2022/04/01 11:54:17;;;;;;;7.37;6.80;;;;;;;3.63;100.00;95153.66;5022834;28;20282;-55
2022/04/01 11:56:45;;;;;;;8.27;7.68;;;;;;;3.60;100.00;95152.19;4988090;28;20527;-59
2022/04/01 11:59:13;;;;;;;7.10;6.57;;;;;;;3.65;100.00;95159.50;5005681;28;20870;-53
2022/04/01 12:01:55;;;;;;;7.37;6.87;;;;;;;3.65;100.00;95162.13;5021742;28;20930;-59
2022/04/01 12:04:30;;;;;;;8.00;7.30;;;;;;;3.66;100.00;95161.13;5022102;28;20203;-56